Time;durP1;ratioP1;P1;durP2;ratioP2;P2;SDS_P1;SDS_P2;PMS_P1;PMS_P2;Temp;Humidity;BMP_temperature;BMP_pressure;BME280_temperature;BME280_humidity;BME280_pressure;Samples;Min_cycle;Max_cycle;Signal;HPM_P1;HPM_P2
2023/05/11 00:01:39;;;;;;;3.72;2.92;;;;;;;;;;10452157;28;20255;-75
2023/05/11 00:06:40;;;;;;;2.80;2.70;;;;;;;;;;10451320;28;20249;-78
2023/05/11 00:11:41;;;;;;;3.53;3.33;;;;;;;;;;10486449;28;20287;-77
2023/05/11 00:16:42;;;;;;;5.53;3.20;;;;;;;;;;10480729;28;20224;-78
2023/05/11 00:21:43;;;;;;;3.10;3.00;;;;;;;;;;10481527;28;20224;-77
2023/05/11 00:26:44;;;;;;;2.90;2.80;;;;;;;;;;10465097;28;20251;-76
2023/05/11 00:31:46;;;;;;;3.00;2.80;;;;;;;;;;10481225;28;20706;-76
2023/05/11 00:36:48;;;;;;;2.97;2.90;;;;;;;;;;10479742;28;20312;-76
2023/05/11 00:41:49;;;;;;;3.20;3.10;;;;;;;;;;10475277;28;20221;-76
2023/05/11 00:46:50;;;;;;;3.35;3.15;;;;;;;;;;10454991;28;20844;-75
2023/05/11 00:51:51;;;;;;;3.78;3.47;;;;;;;;;;10462075;28;20222;-75
2023/05/11 00:56:52;;;;;;;3.60;3.40;;;;;;;;;;10454285;28;20241;-76
2023/05/11 01:01:53;;;;;;;3.42;3.33;;;;;;;;;;10478564;28;20279;-77
2023/05/11 01:07:03;;;;;;;5.30;3.20;;;;;;;;;;10442026;28;20682;-76
2023/05/11 01:12:10;;;;;;;3.03;2.90;;;;;;;;;;10445028;28;20219;-77
2023/05/11 01:17:16;;;;;;;3.88;3.55;;;;;;;;;;10460289;28;20262;-75
2023/05/11 01:22:42;;;;;;;3.75;3.47;;;;;;;;;;10480626;28;20754;-79
2023/05/11 01:27:54;;;;;;;3.58;3.38;;;;;;;;;;10467348;28;20221;-78
2023/05/11 01:32:59;;;;;;;3.97;3.72;;;;;;;;;;10455892;28;20560;-79
2023/05/11 01:38:00;;;;;;;3.95;3.75;;;;;;;;;;10453032;28;21189;-77
2023/05/11 01:43:04;;;;;;;3.55;3.40;;;;;;;;;;10456511;28;20226;-78
2023/05/11 01:48:07;;;;;;;3.67;3.45;;;;;;;;;;10492873;28;20213;-77
2023/05/11 01:53:09;;;;;;;4.13;3.92;;;;;;;;;;10476246;28;20213;-78
2023/05/11 01:58:12;;;;;;;4.05;3.75;;;;;;;;;;10496914;28;20644;-78
2023/05/11 02:03:15;;;;;;;4.28;4.07;;;;;;;;;;10469778;28;20518;-77
2023/05/11 02:08:16;;;;;;;4.10;3.90;;;;;;;;;;10468613;28;20309;-76
2023/05/11 02:13:18;;;;;;;4.90;4.60;;;;;;;;;;10472681;28;20225;-78
2023/05/11 02:18:20;;;;;;;5.00;4.60;;;;;;;;;;10467359;28;20218;-78
2023/05/11 02:23:25;;;;;;;5.18;4.78;;;;;;;;;;10485815;28;20217;-77
2023/05/11 02:28:26;;;;;;;5.22;4.65;;;;;;;;;;10489340;28;20248;-78
2023/05/11 02:33:30;;;;;;;6.13;5.35;;;;;;;;;;10455855;28;20274;-78
2023/05/11 02:38:35;;;;;;;5.13;4.72;;;;;;;;;;10453535;28;20218;-77
2023/05/11 02:43:43;;;;;;;5.00;4.57;;;;;;;;;;10473151;28;20679;-78
2023/05/11 02:48:47;;;;;;;7.35;5.25;;;;;;;;;;10450843;28;20230;-78
2023/05/11 02:53:52;;;;;;;5.75;5.00;;;;;;;;;;10472245;28;20224;-78
2023/05/11 02:58:53;;;;;;;5.32;4.50;;;;;;;;;;10474308;28;20225;-77
2023/05/11 03:03:57;;;;;;;6.25;5.65;;;;;;;;;;10465962;28;20229;-78
2023/05/11 03:09:01;;;;;;;6.68;5.32;;;;;;;;;;10467656;28;20222;-79
2023/05/11 03:14:02;;;;;;;5.30;4.82;;;;;;;;;;10467429;28;21256;-77
2023/05/11 03:19:05;;;;;;;5.10;4.70;;;;;;;;;;10450515;28;20243;-75
2023/05/11 03:24:07;;;;;;;5.32;4.85;;;;;;;;;;10442556;28;20218;-76
2023/05/11 03:29:09;;;;;;;10.02;6.07;;;;;;;;;;10469333;28;20327;-78
2023/05/11 03:34:10;;;;;;;6.32;5.28;;;;;;;;;;10464740;28;20218;-76
2023/05/11 03:39:16;;;;;;;5.53;5.03;;;;;;;;;;10463807;28;21106;-77
2023/05/11 03:44:19;;;;;;;7.20;5.85;;;;;;;;;;10457398;28;20243;-77
2023/05/11 03:49:21;;;;;;;7.35;6.22;;;;;;;;;;10482245;28;20307;-76
2023/05/11 03:54:22;;;;;;;9.60;7.20;;;;;;;;;;10454133;28;20661;-76
2023/05/11 03:59:24;;;;;;;9.88;8.15;;;;;;;;;;10474713;28;20248;-75
2023/05/11 04:04:32;;;;;;;12.65;8.55;;;;;;;;;;10464206;28;20349;-75
2023/05/11 04:09:34;;;;;;;11.45;8.25;;;;;;;;;;10461579;28;20228;-77
2023/05/11 04:14:35;;;;;;;9.32;7.70;;;;;;;;;;10437167;28;20343;-75
2023/05/11 04:19:36;;;;;;;13.27;8.27;;;;;;;;;;10439686;28;20228;-75
2023/05/11 04:24:37;;;;;;;13.95;8.95;;;;;;;;;;10459290;28;20217;-77
2023/05/11 04:29:38;;;;;;;14.85;8.20;;;;;;;;;;10469936;28;20229;-77
2023/05/11 04:34:39;;;;;;;10.95;7.80;;;;;;;;;;10468083;28;20210;-76
2023/05/11 04:39:42;;;;;;;14.35;7.82;;;;;;;;;;10445614;28;20221;-76
2023/05/11 04:44:43;;;;;;;11.15;7.30;;;;;;;;;;10456220;28;20222;-78
2023/05/11 04:49:45;;;;;;;12.38;8.02;;;;;;;;;;10444406;28;20221;-76
2023/05/11 04:54:47;;;;;;;10.40;7.25;;;;;;;;;;10436727;28;20222;-75
2023/05/11 04:59:48;;;;;;;12.23;8.13;;;;;;;;;;10454416;28;20278;-75
2023/05/11 05:04:49;;;;;;;11.45;8.05;;;;;;;;;;10449468;28;20224;-75
2023/05/11 05:09:50;;;;;;;11.40;8.40;;;;;;;;;;10471265;28;20221;-76
2023/05/11 05:14:51;;;;;;;12.52;8.40;;;;;;;;;;10448857;28;20220;-76
2023/05/11 05:19:52;;;;;;;13.77;9.45;;;;;;;;;;10422227;28;20221;-76
2023/05/11 05:24:53;;;;;;;14.20;9.18;;;;;;;;;;10456956;28;20218;-76
2023/05/11 05:29:54;;;;;;;11.55;8.10;;;;;;;;;;10447719;28;20221;-75
2023/05/11 05:34:58;;;;;;;13.40;8.55;;;;;;;;;;10455601;28;21262;-75
2023/05/11 05:39:59;;;;;;;12.88;8.52;;;;;;;;;;10455766;28;20316;-77
2023/05/11 05:45:00;;;;;;;16.75;9.70;;;;;;;;;;10432367;28;20241;-79
2023/05/11 05:50:02;;;;;;;14.18;8.93;;;;;;;;;;10456249;28;20224;-76
2023/05/11 05:55:03;;;;;;;12.13;7.97;;;;;;;;;;10440294;28;20221;-79
2023/05/11 06:00:05;;;;;;;10.00;7.95;;;;;;;;;;10438077;28;20245;-77
2023/05/11 06:05:13;;;;;;;12.93;7.78;;;;;;;;;;10464243;28;20206;-79
2023/05/11 06:10:15;;;;;;;9.73;8.45;;;;;;;;;;10451754;28;21050;-78
2023/05/11 06:15:18;;;;;;;10.32;8.13;;;;;;;;;;10448011;28;20819;-78
2023/05/11 06:20:24;;;;;;;10.98;8.80;;;;;;;;;;10459305;28;20209;-77
2023/05/11 06:25:26;;;;;;;12.02;8.73;;;;;;;;;;10461821;28;20205;-78
2023/05/11 06:30:28;;;;;;;10.82;9.65;;;;;;;;;;10466208;28;20321;-77
2023/05/11 06:35:29;;;;;;;12.55;9.10;;;;;;;;;;10458180;28;21322;-77
2023/05/11 06:40:31;;;;;;;9.43;8.43;;;;;;;;;;10453560;28;20721;-77
2023/05/11 06:45:32;;;;;;;10.73;8.45;;;;;;;;;;10439771;28;20213;-79
2023/05/11 06:50:33;;;;;;;10.88;8.35;;;;;;;;;;10466498;28;20246;-79
2023/05/11 06:55:34;;;;;;;11.63;8.90;;;;;;;;;;10459409;28;20228;-76
2023/05/11 07:00:35;;;;;;;9.57;8.40;;;;;;;;;;10466445;28;20250;-76
2023/05/11 07:05:36;;;;;;;11.02;8.30;;;;;;;;;;10479125;28;20236;-76
2023/05/11 07:10:37;;;;;;;9.77;8.30;;;;;;;;;;10452704;28;21410;-76
2023/05/11 07:15:38;;;;;;;12.70;8.43;;;;;;;;;;10482309;28;20585;-76
2023/05/11 07:20:40;;;;;;;10.40;7.80;;;;;;;;;;10474292;28;20218;-78
2023/05/11 07:25:40;;;;;;;7.60;6.82;;;;;;;;;;10471184;28;20240;-77
2023/05/11 07:30:41;;;;;;;9.25;7.82;;;;;;;;;;10476096;28;20210;-78
2023/05/11 07:35:43;;;;;;;10.48;8.10;;;;;;;;;;10463978;28;20220;-77
2023/05/11 07:40:44;;;;;;;12.68;10.13;;;;;;;;;;10482743;28;20217;-76
2023/05/11 07:45:45;;;;;;;13.30;9.93;;;;;;;;;;10477108;28;20224;-78
2023/05/11 07:50:46;;;;;;;11.05;9.68;;;;;;;;;;10467177;28;20313;-78
2023/05/11 07:55:47;;;;;;;12.18;9.95;;;;;;;;;;10478339;28;20221;-77
2023/05/11 08:00:48;;;;;;;10.65;9.55;;;;;;;;;;10446207;28;20214;-75
2023/05/11 08:05:49;;;;;;;12.95;10.15;;;;;;;;;;10467353;28;20308;-78
2023/05/11 08:10:51;;;;;;;11.88;9.88;;;;;;;;;;10462190;28;20218;-77
2023/05/11 08:15:51;;;;;;;12.13;10.50;;;;;;;;;;10479900;28;20569;-76
2023/05/11 08:20:53;;;;;;;12.27;10.00;;;;;;;;;;10467984;28;20213;-76
2023/05/11 08:25:54;;;;;;;11.80;10.23;;;;;;;;;;10477525;28;20333;-77
2023/05/11 08:30:56;;;;;;;12.55;9.52;;;;;;;;;;10470170;28;20251;-78
2023/05/11 08:35:57;;;;;;;12.70;9.40;;;;;;;;;;10442999;28;20214;-78
2023/05/11 08:40:58;;;;;;;10.65;9.60;;;;;;;;;;10474324;28;20821;-77
2023/05/11 08:46:03;;;;;;;11.00;10.05;;;;;;;;;;10445174;28;20327;-77
2023/05/11 08:51:05;;;;;;;10.60;9.50;;;;;;;;;;10477618;28;20347;-78
2023/05/11 08:56:07;;;;;;;10.35;9.35;;;;;;;;;;10475490;28;20222;-77
2023/05/11 09:01:11;;;;;;;10.70;9.75;;;;;;;;;;10455612;28;20210;-76
2023/05/11 09:06:12;;;;;;;10.25;9.25;;;;;;;;;;10481585;28;20221;-75
2023/05/11 09:11:13;;;;;;;10.73;9.60;;;;;;;;;;10459015;28;20729;-78
2023/05/11 09:16:14;;;;;;;8.85;8.25;;;;;;;;;;10432172;28;20730;-77
2023/05/11 09:21:16;;;;;;;9.68;8.88;;;;;;;;;;10457439;28;20228;-78
2023/05/11 09:26:20;;;;;;;7.47;6.78;;;;;;;;;;10454632;28;20221;-79
2023/05/11 09:31:34;;;;;;;6.28;5.97;;;;;;;;;;10459360;28;20209;-78
2023/05/11 09:36:35;;;;;;;6.70;6.20;;;;;;;;;;10470682;28;20250;-79
2023/05/11 09:41:36;;;;;;;6.07;5.35;;;;;;;;;;10459324;28;20305;-79
2023/05/11 09:46:38;;;;;;;5.57;5.28;;;;;;;;;;10450487;28;20640;-79
2023/05/11 09:51:39;;;;;;;5.50;3.83;;;;;;;;;;10461103;28;20229;-80
2023/05/11 09:56:45;;;;;;;3.97;3.78;;;;;;;;;;10467074;28;20214;-77
2023/05/11 10:01:46;;;;;;;3.08;3.08;;;;;;;;;;10465371;28;20225;-81
2023/05/11 10:06:49;;;;;;;3.05;2.95;;;;;;;;;;10488600;28;20245;-79
2023/05/11 10:11:50;;;;;;;2.65;2.00;;;;;;;;;;10481964;28;20373;-78
2023/05/11 10:16:52;;;;;;;2.60;2.50;;;;;;;;;;10478819;28;20217;-79
2023/05/11 10:21:54;;;;;;;2.13;2.13;;;;;;;;;;10471233;28;20745;-78
2023/05/11 10:26:56;;;;;;;1.70;1.70;;;;;;;;;;10475785;28;20697;-79
2023/05/11 10:31:57;;;;;;;2.50;1.70;;;;;;;;;;10470812;28;20224;-78
2023/05/11 10:37:01;;;;;;;1.92;1.83;;;;;;;;;;10471720;28;20229;-78
2023/05/11 10:42:21;;;;;;;4.22;2.63;;;;;;;;;;10464152;28;20206;-79
2023/05/11 10:47:22;;;;;;;1.60;1.50;;;;;;;;;;10443799;28;20248;-78
2023/05/11 10:52:31;;;;;;;1.55;1.55;;;;;;;;;;10465665;28;20210;-78
2023/05/11 10:57:38;;;;;;;1.55;1.55;;;;;;;;;;10479435;28;20629;-79
2023/05/11 11:02:40;;;;;;;2.60;2.50;;;;;;;;;;10453068;28;20210;-78
2023/05/11 11:08:02;;;;;;;1.90;1.80;;;;;;;;;;10476095;28;20214;-77
2023/05/11 11:13:07;;;;;;;1.80;1.80;;;;;;;;;;10465594;28;20743;-80
2023/05/11 11:18:24;;;;;;;2.25;2.15;;;;;;;;;;10466714;28;20233;-78
2023/05/11 11:23:41;;;;;;;2.20;2.20;;;;;;;;;;10477010;28;21242;-79
2023/05/11 11:29:03;;;;;;;2.22;2.00;;;;;;;;;;10452437;28;20223;-78
2023/05/11 11:34:35;;;;;;;2.00;2.00;;;;;;;;;;10456510;28;20236;-77
2023/05/11 11:39:42;;;;;;;2.42;2.22;;;;;;;;;;10456368;28;20697;-80
2023/05/11 11:44:43;;;;;;;2.22;2.17;;;;;;;;;;10432518;28;20275;-80
2023/05/11 11:49:45;;;;;;;2.42;2.33;;;;;;;;;;10477977;28;20321;-79
2023/05/11 11:54:46;;;;;;;2.38;2.38;;;;;;;;;;10439093;28;20260;-81
2023/05/11 11:59:48;;;;;;;2.03;2.03;;;;;;;;;;10462649;28;20806;-77
2023/05/11 12:04:56;;;;;;;1.85;1.85;;;;;;;;;;10460357;28;20259;-78
2023/05/11 12:09:57;;;;;;;1.98;1.95;;;;;;;;;;10443382;28;20225;-78
2023/05/11 12:15:01;;;;;;;2.00;1.90;;;;;;;;;;10457678;28;20222;-79
2023/05/11 12:20:15;;;;;;;1.95;1.88;;;;;;;;;;10450362;28;20782;-79
2023/05/11 12:25:17;;;;;;;2.03;1.92;;;;;;;;;;10464032;28;20206;-79
2023/05/11 12:30:22;;;;;;;1.85;1.75;;;;;;;;;;10460160;28;20235;-79
2023/05/11 12:35:24;;;;;;;1.63;1.63;;;;;;;;;;10472439;28;20656;-78
2023/05/11 12:40:25;;;;;;;1.85;1.58;;;;;;;;;;10458330;28;20209;-79
2023/05/11 12:45:27;;;;;;;1.55;1.55;;;;;;;;;;10465110;28;20225;-78
2023/05/11 12:50:28;;;;;;;2.10;2.10;;;;;;;;;;10440057;28;20614;-78
2023/05/11 12:55:29;;;;;;;1.50;1.50;;;;;;;;;;10440585;28;20209;-77
2023/05/11 13:00:30;;;;;;;2.15;1.45;;;;;;;;;;10447380;28;20469;-76
2023/05/11 13:05:32;;;;;;;1.60;1.60;;;;;;;;;;10462913;28;20217;-77
2023/05/11 13:10:33;;;;;;;1.40;1.40;;;;;;;;;;10471946;28;20221;-79
2023/05/11 13:15:34;;;;;;;1.40;1.40;;;;;;;;;;10438825;28;20305;-79
2023/05/11 13:20:35;;;;;;;1.17;1.17;;;;;;;;;;10439442;28;20805;-79
2023/05/11 13:25:47;;;;;;;2.20;1.08;;;;;;;;;;10469519;28;20221;-79
2023/05/11 13:30:50;;;;;;;1.25;1.25;;;;;;;;;;10468809;28;20210;-79
2023/05/11 13:35:51;;;;;;;1.40;1.40;;;;;;;;;;10490046;28;20214;-79
2023/05/11 13:40:52;;;;;;;1.35;1.25;;;;;;;;;;10480573;28;20210;-79
2023/05/11 13:45:53;;;;;;;1.70;1.70;;;;;;;;;;10469723;28;20224;-79
2023/05/11 13:50:54;;;;;;;1.73;1.73;;;;;;;;;;10445449;28;20815;-77
2023/05/11 13:55:55;;;;;;;1.67;1.67;;;;;;;;;;10484594;28;20308;-77
2023/05/11 14:00:57;;;;;;;1.60;1.60;;;;;;;;;;10468917;28;20354;-77
2023/05/11 14:05:58;;;;;;;1.50;1.50;;;;;;;;;;10468895;28;20297;-78
2023/05/11 14:10:59;;;;;;;1.98;1.40;;;;;;;;;;10448617;28;20606;-78
2023/05/11 14:16:01;;;;;;;1.40;1.40;;;;;;;;;;10458462;28;20252;-81
2023/05/11 14:21:02;;;;;;;1.40;1.40;;;;;;;;;;10470181;28;20213;-80
2023/05/11 14:26:03;;;;;;;1.70;1.67;;;;;;;;;;10472916;28;20664;-81
2023/05/11 14:31:04;;;;;;;1.17;1.08;;;;;;;;;;10470453;28;20691;-79
2023/05/11 14:36:05;;;;;;;1.42;1.42;;;;;;;;;;10471494;28;20742;-81
2023/05/11 14:41:07;;;;;;;0.95;0.95;;;;;;;;;;10478683;28;20369;-78
2023/05/11 14:46:08;;;;;;;2.30;1.38;;;;;;;;;;10483360;28;20261;-83
2023/05/11 14:51:10;;;;;;;1.45;1.45;;;;;;;;;;10496641;28;20232;-80
2023/05/11 14:56:11;;;;;;;1.33;1.33;;;;;;;;;;10472131;28;20305;-82
2023/05/11 15:01:12;;;;;;;1.45;1.40;;;;;;;;;;10496069;28;20603;-81
2023/05/11 15:06:19;;;;;;;1.58;1.48;;;;;;;;;;10487127;28;20737;-84
2023/05/11 15:11:24;;;;;;;1.80;1.55;;;;;;;;;;10512724;28;20688;-82
2023/05/11 15:16:25;;;;;;;1.58;1.58;;;;;;;;;;10513925;28;20427;-80
2023/05/11 15:21:26;;;;;;;1.65;1.55;;;;;;;;;;10491972;28;20213;-81
2023/05/11 15:26:27;;;;;;;1.30;1.30;;;;;;;;;;10442274;28;20216;-80
2023/05/11 15:31:28;;;;;;;2.05;1.65;;;;;;;;;;10487890;28;20321;-79
2023/05/11 15:36:29;;;;;;;2.17;1.85;;;;;;;;;;10502374;28;20363;-78
2023/05/11 15:41:31;;;;;;;2.65;1.67;;;;;;;;;;10480322;28;20214;-82
2023/05/11 15:46:34;;;;;;;1.95;1.83;;;;;;;;;;10477420;28;20226;-79
2023/05/11 15:51:35;;;;;;;3.15;2.95;;;;;;;;;;10475641;28;20213;-78
2023/05/11 15:56:36;;;;;;;4.63;4.43;;;;;;;;;;10476795;28;20218;-78
2023/05/11 16:01:37;;;;;;;4.35;4.15;;;;;;;;;;10446445;28;20296;-78
2023/05/11 16:06:40;;;;;;;3.67;3.47;;;;;;;;;;10467625;28;20253;-77
2023/05/11 16:11:42;;;;;;;4.75;4.35;;;;;;;;;;10469938;28;20638;-77
2023/05/11 16:16:43;;;;;;;4.35;4.15;;;;;;;;;;10470802;28;20618;-78
2023/05/11 16:21:44;;;;;;;4.95;4.75;;;;;;;;;;10461468;28;20209;-78
2023/05/11 16:26:45;;;;;;;5.25;5.05;;;;;;;;;;10470088;28;20221;-79
2023/05/11 16:31:46;;;;;;;5.82;5.38;;;;;;;;;;10472921;28;20214;-78
2023/05/11 16:36:48;;;;;;;5.38;4.97;;;;;;;;;;10490998;28;20213;-77
2023/05/11 16:41:49;;;;;;;5.20;5.00;;;;;;;;;;10485380;28;20250;-78
2023/05/11 16:46:50;;;;;;;4.80;4.60;;;;;;;;;;10484115;28;20221;-78
2023/05/11 16:51:51;;;;;;;5.10;4.90;;;;;;;;;;10490367;28;20271;-77
2023/05/11 16:56:52;;;;;;;4.55;4.25;;;;;;;;;;10481782;28;20218;-78
2023/05/11 17:01:53;;;;;;;5.13;4.82;;;;;;;;;;10467526;28;20217;-78
2023/05/11 17:06:55;;;;;;;4.47;4.35;;;;;;;;;;10483281;28;20703;-77
2023/05/11 17:11:56;;;;;;;5.95;5.65;;;;;;;;;;10450148;28;20225;-79
2023/05/11 17:16:57;;;;;;;5.40;5.10;;;;;;;;;;10467814;28;20675;-79
2023/05/11 17:21:58;;;;;;;4.43;4.32;;;;;;;;;;10491453;28;20216;-81
2023/05/11 17:26:59;;;;;;;4.65;4.47;;;;;;;;;;10442205;28;20317;-80
2023/05/11 17:32:00;;;;;;;4.20;4.10;;;;;;;;;;10488792;28;20787;-80
2023/05/11 17:37:01;;;;;;;3.80;3.70;;;;;;;;;;10487749;28;20209;-80
2023/05/11 17:42:02;;;;;;;3.53;3.42;;;;;;;;;;10465046;28;20604;-79
2023/05/11 17:47:04;;;;;;;3.95;3.75;;;;;;;;;;10465703;28;20703;-82
2023/05/11 17:52:05;;;;;;;3.22;3.13;;;;;;;;;;10489933;28;20228;-80
2023/05/11 17:57:06;;;;;;;3.60;3.50;;;;;;;;;;10471898;28;20229;-79
2023/05/11 18:02:08;;;;;;;3.33;3.22;;;;;;;;;;10487162;28;20233;-78
2023/05/11 18:07:09;;;;;;;4.45;4.03;;;;;;;;;;10461637;28;20317;-80
2023/05/11 18:12:10;;;;;;;4.13;4.03;;;;;;;;;;10490231;28;20317;-79
2023/05/11 18:17:11;;;;;;;3.58;3.38;;;;;;;;;;10478799;28;20894;-80
2023/05/11 18:22:12;;;;;;;4.00;3.80;;;;;;;;;;10463283;28;20345;-79
2023/05/11 18:27:14;;;;;;;4.63;4.43;;;;;;;;;;10469782;28;20212;-79
2023/05/11 18:32:16;;;;;;;3.88;3.58;;;;;;;;;;10450257;28;20403;-76
2023/05/11 18:37:17;;;;;;;3.53;3.28;;;;;;;;;;10460833;28;20218;-78
2023/05/11 18:42:19;;;;;;;3.60;3.45;;;;;;;;;;10468499;28;20213;-79
2023/05/11 18:47:21;;;;;;;3.92;3.72;;;;;;;;;;10472163;28;20214;-80
2023/05/11 18:52:22;;;;;;;3.53;3.22;;;;;;;;;;10472052;28;20742;-80
2023/05/11 18:57:23;;;;;;;3.72;3.53;;;;;;;;;;10482958;28;20213;-78
2023/05/11 19:02:24;;;;;;;4.13;3.83;;;;;;;;;;10480620;28;20205;-78
2023/05/11 19:07:25;;;;;;;3.65;3.38;;;;;;;;;;10475246;28;20723;-78
2023/05/11 19:12:26;;;;;;;3.35;3.25;;;;;;;;;;10449681;28;20320;-80
2023/05/11 19:17:28;;;;;;;3.72;3.53;;;;;;;;;;10484364;28;20205;-79
2023/05/11 19:22:29;;;;;;;3.50;3.40;;;;;;;;;;10459937;28;20260;-79
2023/05/11 19:27:30;;;;;;;4.60;4.32;;;;;;;;;;10428090;28;20643;-78
2023/05/11 19:32:31;;;;;;;3.50;3.40;;;;;;;;;;10477137;28;20222;-79
2023/05/11 19:37:33;;;;;;;3.95;3.75;;;;;;;;;;10436538;28;20219;-79
2023/05/11 19:42:34;;;;;;;4.05;3.83;;;;;;;;;;10438832;28;20220;-81
2023/05/11 19:47:35;;;;;;;3.83;3.72;;;;;;;;;;10462833;28;20229;-79
2023/05/11 19:52:36;;;;;;;4.10;4.00;;;;;;;;;;10462850;28;20861;-80
2023/05/11 19:57:37;;;;;;;4.30;4.00;;;;;;;;;;10484551;28;20218;-80
2023/05/11 20:02:39;;;;;;;4.82;4.53;;;;;;;;;;10485585;28;20222;-81
2023/05/11 20:07:40;;;;;;;4.28;3.83;;;;;;;;;;10476125;28;20213;-78
2023/05/11 20:12:41;;;;;;;4.00;3.80;;;;;;;;;;10476697;28;20221;-77
2023/05/11 20:17:42;;;;;;;3.17;3.08;;;;;;;;;;10487381;28;20595;-79
2023/05/11 20:22:43;;;;;;;2.90;2.70;;;;;;;;;;10453309;28;20218;-78
2023/05/11 20:27:44;;;;;;;2.85;2.75;;;;;;;;;;10490570;28;20228;-77
2023/05/11 20:32:46;;;;;;;2.72;2.60;;;;;;;;;;10471465;28;20221;-77
2023/05/11 20:37:47;;;;;;;2.15;2.05;;;;;;;;;;10481869;28;20257;-77
2023/05/11 20:42:48;;;;;;;1.85;1.75;;;;;;;;;;10465997;28;20304;-78
2023/05/11 20:47:49;;;;;;;1.83;1.83;;;;;;;;;;10468048;28;20217;-77
2023/05/11 20:52:50;;;;;;;1.73;1.63;;;;;;;;;;10485393;28;20218;-78
2023/05/11 20:57:51;;;;;;;1.40;1.40;;;;;;;;;;10471358;28;20654;-78
2023/05/11 21:02:52;;;;;;;1.75;1.48;;;;;;;;;;10471896;28;20271;-76
2023/05/11 21:07:53;;;;;;;1.33;1.33;;;;;;;;;;10487947;28;20370;-77
2023/05/11 21:12:54;;;;;;;1.65;1.55;;;;;;;;;;10486365;28;20861;-78
2023/05/11 21:17:55;;;;;;;7.82;1.60;;;;;;;;;;10466213;28;20591;-76
2023/05/11 21:22:56;;;;;;;0.95;0.95;;;;;;;;;;10465299;28;20221;-78
2023/05/11 21:27:59;;;;;;;1.80;1.08;;;;;;;;;;10488197;28;20636;-77
2023/05/11 21:33:00;;;;;;;2.38;1.50;;;;;;;;;;10490187;28;20727;-78
2023/05/11 21:38:02;;;;;;;0.98;0.98;;;;;;;;;;10484786;28;20214;-78
2023/05/11 21:43:02;;;;;;;1.15;1.00;;;;;;;;;;10474013;28;20229;-78
2023/05/11 21:48:04;;;;;;;1.00;1.00;;;;;;;;;;10482855;28;20668;-77
2023/05/11 21:53:05;;;;;;;1.00;1.00;;;;;;;;;;10482138;28;20253;-77
2023/05/11 21:58:06;;;;;;;0.93;0.93;;;;;;;;;;10486619;28;20267;-79
2023/05/11 22:03:07;;;;;;;1.00;1.00;;;;;;;;;;10454046;28;21554;-80
2023/05/11 22:08:08;;;;;;;1.20;0.80;;;;;;;;;;10494471;28;20313;-78
2023/05/11 22:13:10;;;;;;;0.93;0.93;;;;;;;;;;10498010;28;20222;-78
2023/05/11 22:18:10;;;;;;;1.17;1.10;;;;;;;;;;10475565;28;20971;-79
2023/05/11 22:23:12;;;;;;;0.90;0.90;;;;;;;;;;10463529;28;20205;-78
2023/05/11 22:28:13;;;;;;;2.10;1.15;;;;;;;;;;10463259;28;20220;-78
2023/05/11 22:33:14;;;;;;;1.85;1.17;;;;;;;;;;10492613;28;20216;-75
2023/05/11 22:38:15;;;;;;;2.38;1.20;;;;;;;;;;10476552;28;20226;-78
2023/05/11 22:43:16;;;;;;;1.05;1.00;;;;;;;;;;10498476;28;20734;-77
2023/05/11 22:48:17;;;;;;;0.90;0.90;;;;;;;;;;10489059;28;20243;-77
2023/05/11 22:53:19;;;;;;;1.20;1.20;;;;;;;;;;10488631;28;20210;-78
2023/05/11 22:58:21;;;;;;;1.08;1.08;;;;;;;;;;10474047;28;20326;-78
2023/05/11 23:03:22;;;;;;;1.10;1.10;;;;;;;;;;10468983;28;20212;-76
2023/05/11 23:08:25;;;;;;;0.80;0.80;;;;;;;;;;10483633;28;20219;-79
2023/05/11 23:13:26;;;;;;;6.88;1.05;;;;;;;;;;10492729;28;20303;-77
2023/05/11 23:18:27;;;;;;;1.80;1.20;;;;;;;;;;10490934;28;20317;-78
2023/05/11 23:23:28;;;;;;;1.10;1.10;;;;;;;;;;10469602;28;20686;-79
2023/05/11 23:28:29;;;;;;;1.08;1.08;;;;;;;;;;10461079;28;20220;-79
2023/05/11 23:33:30;;;;;;;1.77;1.20;;;;;;;;;;10493094;28;20370;-77
2023/05/11 23:38:31;;;;;;;1.13;1.00;;;;;;;;;;10482667;28;20209;-74
2023/05/11 23:43:32;;;;;;;1.13;1.13;;;;;;;;;;10495005;28;20354;-78
2023/05/11 23:48:33;;;;;;;1.02;1.02;;;;;;;;;;10481682;28;20289;-77
2023/05/11 23:53:34;;;;;;;2.58;1.00;;;;;;;;;;10470390;28;20696;-76
2023/05/11 23:58:35;;;;;;;1.05;1.05;;;;;;;;;;10489517;28;20221;-75
